Time;durP1;ratioP1;P1;durP2;ratioP2;P2;SDS_P1;SDS_P2;PMS_P1;PMS_P2;Temp;Humidity;BMP_temperature;BMP_pressure;BME280_temperature;BME280_humidity;BME280_pressure;Samples;Min_cycle;Max_cycle;Signal;HPM_P1;HPM_P2
2023/06/29 00:00:29;;;;;;;;;;;;;;;17.16;70.32;101210.75;4105260;28;20061;-60
2023/06/29 00:02:32;;;;;;;;;;;;;;;17.14;70.17;101216.44;4138649;28;20045;-60
2023/06/29 00:04:35;;;;;;;;;;;;;;;17.12;70.25;101213.06;4107415;28;20436;-62
2023/06/29 00:06:37;;;;;;;;;;;;;;;17.09;70.14;101219.78;4107064;28;20016;-62
2023/06/29 00:08:42;;;;;;;;;;;;;;;17.07;70.05;101218.34;4107620;28;20046;-63
2023/06/29 00:10:45;;;;;;;;;;;;;;;17.02;70.45;101216.22;4106540;28;20033;-62
2023/06/29 00:12:47;;;;;;;;;;;;;;;17.02;70.32;101216.22;4102200;28;20030;-63
2023/06/29 00:14:49;;;;;;;;;;;;;;;16.99;70.49;101221.22;4108047;28;20005;-62
2023/06/29 00:16:51;;;;;;;;;;;;;;;16.99;70.62;101224.81;4107509;28;20025;-62
2023/06/29 00:18:55;;;;;;;;;;;;;;;17.04;70.47;101222.31;4103743;28;20090;-62
2023/06/29 00:21:00;;;;;;;;;;;;;;;17.07;70.46;101219.16;4101573;28;20024;-62
2023/06/29 00:23:02;;;;;;;;;;;;;;;17.14;70.80;101219.16;4107176;28;20457;-61
2023/06/29 00:25:06;;;;;;;;;;;;;;;17.16;70.22;101219.78;4107088;28;20009;-62
2023/06/29 00:27:08;;;;;;;;;;;;;;;17.14;70.33;101223.78;4107559;28;20041;-62
2023/06/29 00:29:10;;;;;;;;;;;;;;;17.12;70.58;101218.53;4107462;28;20445;-60
2023/06/29 00:31:12;;;;;;;;;;;;;;;17.13;70.40;101222.09;4107934;28;20025;-62
2023/06/29 00:33:14;;;;;;;;;;;;;;;17.06;70.63;101217.47;4131046;28;20033;-60
2023/06/29 00:35:16;;;;;;;;;;;;;;;17.04;70.97;101219.56;4137695;28;20026;-62
2023/06/29 00:37:19;;;;;;;;;;;;;;;16.98;70.70;101219.56;4137331;28;20028;-63
2023/06/29 00:39:21;;;;;;;;;;;;;;;16.89;71.19;101213.47;4117768;28;20369;-61
2023/06/29 00:41:23;;;;;;;;;;;;;;;16.89;71.58;101211.56;4128819;28;19961;-62
2023/06/29 00:43:25;;;;;;;;;;;;;;;16.93;71.60;101210.13;4138856;28;20016;-63
2023/06/29 00:45:27;;;;;;;;;;;;;;;16.94;71.51;101208.22;4136534;28;20490;-60
2023/06/29 00:47:30;;;;;;;;;;;;;;;16.90;71.43;101202.34;4136129;28;20031;-60
2023/06/29 00:49:32;;;;;;;;;;;;;;;16.84;71.90;101203.13;4136077;28;20354;-62
2023/06/29 00:51:34;;;;;;;;;;;;;;;16.82;72.33;101205.25;4137581;28;20017;-62
2023/06/29 00:53:38;;;;;;;;;;;;;;;16.79;72.41;101202.94;4139807;28;20020;-62
2023/06/29 00:55:40;;;;;;;;;;;;;;;16.78;72.85;101195.78;4137719;28;20016;-63
2023/06/29 00:57:42;;;;;;;;;;;;;;;16.78;72.93;101200.41;4139550;28;20048;-63
2023/06/29 00:59:44;;;;;;;;;;;;;;;16.76;72.79;101197.88;4138310;28;20025;-61
2023/06/29 01:01:46;;;;;;;;;;;;;;;16.80;72.59;101196.41;4137693;28;20355;-62
2023/06/29 01:03:48;;;;;;;;;;;;;;;16.84;72.39;101194.97;4121103;28;20032;-63
2023/06/29 01:05:50;;;;;;;;;;;;;;;16.84;72.29;101197.69;4138527;28;20522;-63
2023/06/29 01:07:56;;;;;;;;;;;;;;;16.88;72.36;101190.81;4121597;28;20107;-60
2023/06/29 01:09:59;;;;;;;;;;;;;;;16.86;72.40;101184.69;4138476;28;20414;-64
2023/06/29 01:12:01;;;;;;;;;;;;;;;16.81;72.68;101180.91;4121532;28;20024;-62
2023/06/29 01:14:05;;;;;;;;;;;;;;;16.75;72.68;101191.59;4138157;28;19968;-62
2023/06/29 01:16:07;;;;;;;;;;;;;;;16.77;72.88;101194.13;4139314;28;20654;-62
2023/06/29 01:18:09;;;;;;;;;;;;;;;16.74;72.86;101184.47;4139070;28;20008;-63
2023/06/29 01:20:11;;;;;;;;;;;;;;;16.69;73.03;101186.97;4133968;28;20575;-63
2023/06/29 01:22:22;;;;;;;;;;;;;;;16.64;73.49;101178.56;4138967;28;20036;-63
2023/06/29 01:24:24;;;;;;;;;;;;;;;16.62;73.63;101185.28;4132294;28;20009;-65
2023/06/29 01:26:29;;;;;;;;;;;;;;;16.58;73.77;101174.78;4136479;28;20028;-63
2023/06/29 01:28:38;;;;;;;;;;;;;;;16.55;74.06;101177.91;4137988;28;19972;-62
2023/06/29 01:30:45;;;;;;;;;;;;;;;16.50;74.19;101176.84;4138460;28;20530;-63
2023/06/29 01:32:47;;;;;;;;;;;;;;;16.44;74.39;101183.97;4138199;28;20030;-64
2023/06/29 01:34:49;;;;;;;;;;;;;;;16.41;74.21;101178.94;4136803;28;20019;-63
2023/06/29 01:36:50;;;;;;;;;;;;;;;16.34;74.48;101180.78;4135973;28;20004;-65
2023/06/29 01:38:53;;;;;;;;;;;;;;;16.26;74.46;101180.97;4137561;28;19933;-63
2023/06/29 01:40:55;;;;;;;;;;;;;;;16.14;74.89;101178.81;4137232;28;20016;-64
2023/06/29 01:42:58;;;;;;;;;;;;;;;16.13;75.60;101177.16;4137067;28;20024;-64
2023/06/29 01:45:00;;;;;;;;;;;;;;;16.16;75.64;101174.03;4127975;28;20017;-62
2023/06/29 01:47:02;;;;;;;;;;;;;;;16.20;75.81;101174.44;4133815;28;20008;-63
2023/06/29 01:49:04;;;;;;;;;;;;;;;16.25;75.48;101173.84;4137755;28;20376;-63
2023/06/29 01:51:07;;;;;;;;;;;;;;;16.24;75.47;101170.28;4137081;28;20048;-63
2023/06/29 01:53:10;;;;;;;;;;;;;;;16.20;75.56;101167.09;4136668;28;20040;-61
2023/06/29 01:55:13;;;;;;;;;;;;;;;16.16;75.54;101171.28;4136710;28;20481;-63
2023/06/29 01:57:15;;;;;;;;;;;;;;;16.10;75.39;101163.94;4139279;28;20013;-61
2023/06/29 01:59:18;;;;;;;;;;;;;;;16.06;75.61;101175.44;4120261;28;20013;-63
2023/06/29 02:01:20;;;;;;;;;;;;;;;16.03;75.86;101174.81;4128018;28;20463;-63
2023/06/29 02:03:22;;;;;;;;;;;;;;;16.02;75.84;101175.00;4138109;28;20012;-62
2023/06/29 02:05:24;;;;;;;;;;;;;;;15.98;76.18;101169.09;4120766;28;20394;-63
2023/06/29 02:07:26;;;;;;;;;;;;;;;15.98;76.29;101171.00;4138811;28;20020;-64
2023/06/29 02:09:28;;;;;;;;;;;;;;;15.96;76.37;101175.81;4120367;28;20028;-64
2023/06/29 02:11:30;;;;;;;;;;;;;;;15.97;76.69;101169.31;4132595;28;20491;-64
2023/06/29 02:13:32;;;;;;;;;;;;;;;15.97;76.61;101163.84;4136602;28;20025;-63
2023/06/29 02:15:35;;;;;;;;;;;;;;;15.96;76.34;101168.47;4136437;28;20431;-64
2023/06/29 02:17:42;;;;;;;;;;;;;;;15.94;76.82;101167.84;4121240;28;20074;-63
2023/06/29 02:19:44;;;;;;;;;;;;;;;15.93;76.77;101168.88;4137114;28;20041;-63
2023/06/29 02:21:46;;;;;;;;;;;;;;;15.93;76.78;101173.50;4138051;28;20474;-63
2023/06/29 02:23:48;;;;;;;;;;;;;;;15.94;76.86;101173.28;4120158;28;20397;-63
2023/06/29 02:25:50;;;;;;;;;;;;;;;15.96;76.46;101168.47;4137275;28;20408;-64
2023/06/29 02:27:52;;;;;;;;;;;;;;;15.91;76.49;101168.25;4133042;28;20011;-64
2023/06/29 02:29:54;;;;;;;;;;;;;;;15.88;76.84;101171.38;4120314;28;20020;-63
2023/06/29 02:32:00;;;;;;;;;;;;;;;15.80;76.69;101172.38;4140840;28;20036;-64
2023/06/29 02:34:02;;;;;;;;;;;;;;;15.73;77.18;101168.72;4134141;28;20452;-63
2023/06/29 02:36:04;;;;;;;;;;;;;;;15.67;77.63;101170.41;4137227;28;20048;-64
2023/06/29 02:38:06;;;;;;;;;;;;;;;15.70;77.33;101171.84;4124108;28;20020;-61
2023/06/29 02:40:09;;;;;;;;;;;;;;;15.68;77.64;101180.22;4138529;28;20012;-63
2023/06/29 02:42:11;;;;;;;;;;;;;;;15.63;77.40;101176.44;4139296;28;20020;-63
2023/06/29 02:44:13;;;;;;;;;;;;;;;15.59;77.93;101173.25;4122975;28;20020;-63
2023/06/29 02:46:15;;;;;;;;;;;;;;;15.53;78.39;101179.50;4137924;28;20016;-60
2023/06/29 02:48:20;;;;;;;;;;;;;;;15.49;78.20;101187.22;4139574;28;20024;-63
2023/06/29 02:50:22;;;;;;;;;;;;;;;15.46;78.39;101178.63;4122426;28;20020;-61
2023/06/29 02:52:25;;;;;;;;;;;;;;;15.42;78.58;101186.34;4141048;28;20028;-62
2023/06/29 02:54:28;;;;;;;;;;;;;;;15.41;78.97;101184.66;4136144;28;20071;-62
2023/06/29 02:56:29;;;;;;;;;;;;;;;15.38;78.91;101184.22;4123508;28;20468;-63
2023/06/29 02:58:32;;;;;;;;;;;;;;;15.36;79.02;101178.97;4141121;28;20373;-63
2023/06/29 03:00:35;;;;;;;;;;;;;;;15.33;79.03;101179.38;4138542;28;20033;-61
2023/06/29 03:02:36;;;;;;;;;;;;;;;15.34;78.97;101175.59;4137749;28;20109;-62
2023/06/29 03:04:40;;;;;;;;;;;;;;;15.33;78.91;101176.66;4122782;28;20032;-62
2023/06/29 03:06:42;;;;;;;;;;;;;;;15.31;79.24;101182.28;4140158;28;20016;-62
2023/06/29 03:08:44;;;;;;;;;;;;;;;15.29;79.04;101181.63;4141257;28;20021;-63
2023/06/29 03:10:46;;;;;;;;;;;;;;;15.25;79.22;101180.38;4139407;28;20025;-62
2023/06/29 03:12:48;;;;;;;;;;;;;;;15.25;79.43;101184.94;4140466;28;20464;-63
2023/06/29 03:14:50;;;;;;;;;;;;;;;15.23;79.41;101178.88;4140480;28;20396;-62
2023/06/29 03:16:52;;;;;;;;;;;;;;;15.21;79.58;101180.94;4140540;28;20028;-63
2023/06/29 03:18:54;;;;;;;;;;;;;;;15.24;79.78;101183.28;4139883;28;20049;-62
2023/06/29 03:20:58;;;;;;;;;;;;;;;15.29;79.62;101180.81;4140957;28;20383;-63
2023/06/29 03:22:59;;;;;;;;;;;;;;;15.29;79.05;101183.53;4139454;28;20021;-66
2023/06/29 03:25:01;;;;;;;;;;;;;;;15.26;79.13;101179.31;4138120;28;20017;-60
2023/06/29 03:27:04;;;;;;;;;;;;;;;15.29;78.98;101181.63;4140211;28;20025;-65
2023/06/29 03:29:06;;;;;;;;;;;;;;;15.29;78.98;101180.81;4139612;28;20020;-64
2023/06/29 03:31:08;;;;;;;;;;;;;;;15.28;78.77;101184.56;4140034;28;20722;-64
2023/06/29 03:33:10;;;;;;;;;;;;;;;15.26;78.91;101186.63;4137223;28;20028;-63
2023/06/29 03:35:12;;;;;;;;;;;;;;;15.25;78.91;101174.91;4139548;28;20012;-63
2023/06/29 03:37:15;;;;;;;;;;;;;;;15.27;78.62;101177.44;4140948;28;20036;-61
2023/06/29 03:39:17;;;;;;;;;;;;;;;15.26;78.64;101181.19;4136033;28;20377;-63
2023/06/29 03:41:19;;;;;;;;;;;;;;;15.23;78.87;101176.16;4139227;28;20021;-60
2023/06/29 03:43:21;;;;;;;;;;;;;;;15.20;78.94;101185.53;4139683;28;20012;-63
2023/06/29 03:45:24;;;;;;;;;;;;;;;15.20;79.65;101187.41;4140197;28;20374;-62
2023/06/29 03:47:26;;;;;;;;;;;;;;;15.22;79.66;101183.47;4136139;28;20025;-61
2023/06/29 03:49:27;;;;;;;;;;;;;;;15.23;79.63;101189.75;4139093;28;20017;-61
2023/06/29 03:51:30;;;;;;;;;;;;;;;15.25;79.63;101184.94;4140295;28;20024;-61
2023/06/29 03:53:33;;;;;;;;;;;;;;;15.25;79.43;101188.53;4140174;28;20119;-63
2023/06/29 03:55:35;;;;;;;;;;;;;;;15.25;79.54;101187.66;4139903;28;20458;-63
2023/06/29 03:57:37;;;;;;;;;;;;;;;15.29;79.72;101188.97;4139567;28;20052;-62
2023/06/29 03:59:39;;;;;;;;;;;;;;;15.31;79.16;101195.03;4140231;28;20005;-63
2023/06/29 04:01:41;;;;;;;;;;;;;;;15.28;79.16;101192.72;4137277;28;20020;-63
2023/06/29 04:03:43;;;;;;;;;;;;;;;15.25;78.95;101193.09;4139278;28;20024;-66
2023/06/29 04:05:45;;;;;;;;;;;;;;;15.23;79.46;101193.31;4138702;28;20005;-64
2023/06/29 04:07:47;;;;;;;;;;;;;;;15.24;79.61;101188.72;4140991;28;20016;-64
2023/06/29 04:09:51;;;;;;;;;;;;;;;15.27;79.68;101182.88;4135990;28;20468;-64
2023/06/29 04:11:53;;;;;;;;;;;;;;;15.31;79.64;101189.59;4121846;28;20016;-62
2023/06/29 04:13:55;;;;;;;;;;;;;;;15.37;80.16;101183.38;4139254;28;20025;-63
2023/06/29 04:15:57;;;;;;;;;;;;;;;15.42;79.78;101180.91;4140160;28;20036;-61
2023/06/29 04:17:59;;;;;;;;;;;;;;;15.49;79.83;101184.50;4139229;28;20020;-63
2023/06/29 04:20:01;;;;;;;;;;;;;;;15.54;79.67;101180.34;4138743;28;20008;-63
2023/06/29 04:22:03;;;;;;;;;;;;;;;15.58;79.53;101187.94;4139421;28;20016;-61
2023/06/29 04:24:06;;;;;;;;;;;;;;;15.61;79.42;101182.09;4139421;28;20463;-62
2023/06/29 04:26:09;;;;;;;;;;;;;;;15.67;79.84;101184.00;4139788;28;20370;-63
2023/06/29 04:28:12;;;;;;;;;;;;;;;15.75;79.35;101190.31;4139081;28;20028;-60
2023/06/29 04:30:17;;;;;;;;;;;;;;;15.81;79.26;101187.66;4137066;28;20031;-63
2023/06/29 04:32:19;;;;;;;;;;;;;;;15.84;79.32;101195.44;4140283;28;20025;-60
2023/06/29 04:34:21;;;;;;;;;;;;;;;15.88;79.38;101187.72;4121227;28;20024;-62
2023/06/29 04:36:23;;;;;;;;;;;;;;;15.92;79.47;101190.88;4138534;28;20020;-64
2023/06/29 04:38:26;;;;;;;;;;;;;;;15.99;79.47;101186.31;4139528;28;20024;-64
2023/06/29 04:40:28;;;;;;;;;;;;;;;16.05;79.47;101188.22;4121711;28;20020;-63
2023/06/29 04:42:32;;;;;;;;;;;;;;;16.13;79.39;101193.50;4139408;28;20020;-62
2023/06/29 04:44:34;;;;;;;;;;;;;;;16.19;79.42;101186.38;4136235;28;20608;-61
2023/06/29 04:46:37;;;;;;;;;;;;;;;16.23;79.42;101184.94;4140010;28;20016;-64
2023/06/29 04:48:40;;;;;;;;;;;;;;;16.27;79.55;101182.63;4134102;28;20029;-63
2023/06/29 04:50:43;;;;;;;;;;;;;;;16.30;79.67;101176.78;4137211;28;19957;-60
2023/06/29 04:52:45;;;;;;;;;;;;;;;16.32;79.68;101178.25;4138952;28;20487;-61
2023/06/29 04:54:47;;;;;;;;;;;;;;;16.33;79.98;101177.22;4138856;28;20004;-61
2023/06/29 04:56:49;;;;;;;;;;;;;;;16.38;80.18;101169.28;4139263;28;20025;-61
2023/06/29 04:58:52;;;;;;;;;;;;;;;16.45;80.28;101168.44;4139149;28;20029;-60
2023/06/29 05:00:55;;;;;;;;;;;;;;;16.50;79.88;101172.22;4136233;28;20031;-61
2023/06/29 05:02:57;;;;;;;;;;;;;;;16.54;80.12;101178.94;4138782;28;20440;-62
2023/06/29 05:04:59;;;;;;;;;;;;;;;16.58;80.00;101171.19;4138464;28;20480;-64
2023/06/29 05:07:01;;;;;;;;;;;;;;;16.64;79.93;101172.25;4139400;28;20024;-64
2023/06/29 05:09:03;;;;;;;;;;;;;;;16.70;79.85;101174.16;4138494;28;20028;-63
2023/06/29 05:11:05;;;;;;;;;;;;;;;16.77;79.67;101177.75;4138045;28;20012;-65
2023/06/29 05:13:07;;;;;;;;;;;;;;;16.84;79.65;101173.13;4138453;28;20563;-64
2023/06/29 05:15:11;;;;;;;;;;;;;;;16.92;79.49;101170.22;4138614;28;20028;-65
2023/06/29 05:17:13;;;;;;;;;;;;;;;16.99;79.03;101174.84;4136263;28;20436;-63
2023/06/29 05:19:15;;;;;;;;;;;;;;;17.05;79.17;101174.88;4138260;28;20028;-64
2023/06/29 05:21:17;;;;;;;;;;;;;;;17.11;78.88;101170.44;4138797;28;20033;-63
2023/06/29 05:23:19;;;;;;;;;;;;;;;17.16;78.74;101175.28;4138795;28;20387;-64
2023/06/29 05:25:21;;;;;;;;;;;;;;;17.21;78.96;101176.34;4136804;28;20004;-61
2023/06/29 05:27:23;;;;;;;;;;;;;;;17.26;78.47;101176.53;4138534;28;20016;-64
2023/06/29 05:29:25;;;;;;;;;;;;;;;17.31;78.55;101173.19;4138373;28;20012;-64
2023/06/29 05:31:28;;;;;;;;;;;;;;;17.36;78.42;101170.66;4137306;28;20056;-66
2023/06/29 05:33:30;;;;;;;;;;;;;;;17.41;78.21;101172.75;4136609;28;20023;-66
2023/06/29 05:35:34;;;;;;;;;;;;;;;17.47;77.76;101169.16;4137999;28;20012;-65
2023/06/29 05:37:36;;;;;;;;;;;;;;;17.52;77.62;101174.81;4139032;28;20016;-65
2023/06/29 05:39:38;;;;;;;;;;;;;;;17.58;77.65;101167.69;4137052;28;20005;-64
2023/06/29 05:41:40;;;;;;;;;;;;;;;17.64;77.63;101175.03;4137214;28;20017;-65
2023/06/29 05:43:42;;;;;;;;;;;;;;;17.69;77.27;101167.03;4136880;28;20024;-64
2023/06/29 05:45:44;;;;;;;;;;;;;;;17.74;77.24;101169.97;4136493;28;20040;-64
2023/06/29 05:47:47;;;;;;;;;;;;;;;17.78;76.92;101170.38;4138057;28;20027;-63
2023/06/29 05:49:50;;;;;;;;;;;;;;;17.83;77.22;101173.28;4137727;28;20009;-65
2023/06/29 05:51:52;;;;;;;;;;;;;;;17.86;76.95;101169.31;4138248;28;20443;-64
2023/06/29 05:53:54;;;;;;;;;;;;;;;17.89;77.07;101179.84;4135983;28;20013;-65
2023/06/29 05:55:56;;;;;;;;;;;;;;;17.93;77.38;101176.47;4137812;28;20020;-64
2023/06/29 05:57:58;;;;;;;;;;;;;;;17.97;77.00;101177.69;4139030;28;20016;-64
2023/06/29 06:00:04;;;;;;;;;;;;;;;18.00;76.92;101179.16;4136912;28;20412;-64
2023/06/29 06:02:09;;;;;;;;;;;;;;;18.01;76.99;101169.91;4138151;28;20469;-65
2023/06/29 06:04:12;;;;;;;;;;;;;;;18.04;77.20;101183.16;4137012;28;20523;-65
2023/06/29 06:06:15;;;;;;;;;;;;;;;18.06;76.79;101180.19;4137776;28;20408;-66
2023/06/29 06:08:17;;;;;;;;;;;;;;;18.08;76.74;101178.91;4139939;28;20032;-64
2023/06/29 06:10:19;;;;;;;;;;;;;;;18.11;76.61;101173.00;4132969;28;20024;-62
2023/06/29 06:12:21;;;;;;;;;;;;;;;18.15;75.94;101176.13;4131040;28;20418;-62
2023/06/29 06:14:23;;;;;;;;;;;;;;;18.18;75.90;101181.19;4136876;28;20021;-65
2023/06/29 06:16:25;;;;;;;;;;;;;;;18.22;75.66;101176.13;4126792;28;19940;-65
2023/06/29 06:18:27;;;;;;;;;;;;;;;18.25;75.64;101171.06;4136494;28;20344;-65
2023/06/29 06:20:30;;;;;;;;;;;;;;;18.28;76.15;101169.81;4137059;28;20036;-65
2023/06/29 06:22:33;;;;;;;;;;;;;;;18.31;75.37;101166.63;4138281;28;20048;-65
2023/06/29 06:24:35;;;;;;;;;;;;;;;18.33;74.18;101164.50;4138766;28;20016;-64
2023/06/29 06:26:38;;;;;;;;;;;;;;;18.35;73.11;101162.38;4138366;28;20016;-63
2023/06/29 06:30:50;;;;;;;;;;;;;;;18.39;71.82;101152.69;2347427;22;19937;-62
2023/06/29 06:32:53;;;;;;;;;;;;;;;18.43;71.04;101156.69;4155930;28;19933;-64
2023/06/29 06:34:55;;;;;;;;;;;;;;;18.45;70.93;101168.22;4163522;28;20027;-64
2023/06/29 06:36:59;;;;;;;;;;;;;;;18.50;72.22;101162.09;4167861;28;20036;-62
2023/06/29 06:39:01;;;;;;;;;;;;;;;18.55;72.06;101159.53;4168667;28;20027;-63
2023/06/29 06:41:03;;;;;;;;;;;;;;;18.58;71.09;101163.75;4163125;28;20084;-63
2023/06/29 06:43:05;;;;;;;;;;;;;;;18.62;72.11;101160.34;4164798;28;20032;-63
2023/06/29 06:45:07;;;;;;;;;;;;;;;18.64;70.10;101155.50;4166600;28;20015;-63
2023/06/29 06:47:10;;;;;;;;;;;;;;;18.66;69.53;101164.31;4166718;28;20019;-64
2023/06/29 06:49:12;;;;;;;;;;;;;;;18.71;70.57;101167.25;4165584;28;20027;-64
2023/06/29 06:51:14;;;;;;;;;;;;;;;18.79;70.54;101165.28;4171273;28;20016;-65
2023/06/29 06:53:17;;;;;;;;;;;;;;;18.81;70.49;101158.53;4170057;28;20460;-64
2023/06/29 06:55:19;;;;;;;;;;;;;;;18.83;70.44;101158.31;4171952;28;20012;-66
2023/06/29 06:57:22;;;;;;;;;;;;;;;18.85;69.35;101158.94;4169431;28;20019;-65
2023/06/29 06:59:24;;;;;;;;;;;;;;;18.87;69.06;101149.47;4169562;28;20019;-61
2023/06/29 07:01:26;;;;;;;;;;;;;;;18.91;70.10;101167.09;4152403;28;19968;-66
2023/06/29 07:03:28;;;;;;;;;;;;;;;18.96;70.27;101166.44;4169668;28;20357;-65
2023/06/29 07:05:30;;;;;;;;;;;;;;;18.97;69.92;101164.56;4169865;28;20027;-64
2023/06/29 07:07:33;;;;;;;;;;;;;;;19.00;70.43;101164.13;4170443;28;20376;-64
2023/06/29 07:09:36;;;;;;;;;;;;;;;19.04;70.48;101162.59;4166630;28;20024;-65
2023/06/29 07:11:38;;;;;;;;;;;;;;;19.06;69.21;101164.06;4168454;28;20020;-65
2023/06/29 07:13:40;;;;;;;;;;;;;;;19.10;68.30;101158.97;4170359;28;20036;-65
2023/06/29 07:15:42;;;;;;;;;;;;;;;19.14;68.19;101162.06;4169420;28;20019;-65
2023/06/29 07:17:44;;;;;;;;;;;;;;;19.19;68.27;101165.00;4173714;28;20024;-65
2023/06/29 07:19:46;;;;;;;;;;;;;;;19.23;67.98;101161.59;4171533;28;20060;-64
2023/06/29 07:21:48;;;;;;;;;;;;;;;19.24;67.14;101160.50;4170544;28;20031;-65
2023/06/29 07:23:50;;;;;;;;;;;;;;;19.26;66.75;101160.28;4174276;28;20027;-65
2023/06/29 07:25:54;;;;;;;;;;;;;;;19.25;66.57;101162.19;4173379;28;20362;-64
2023/06/29 07:27:56;;;;;;;;;;;;;;;19.30;67.29;101163.44;4173078;28;20019;-67
2023/06/29 07:29:58;;;;;;;;;;;;;;;19.31;67.11;101159.63;4169445;28;20561;-66
2023/06/29 07:32:01;;;;;;;;;;;;;;;19.34;66.72;101157.28;4172777;28;20016;-66
2023/06/29 07:34:04;;;;;;;;;;;;;;;19.33;66.37;101147.38;4172143;28;19960;-65
2023/06/29 07:36:06;;;;;;;;;;;;;;;19.35;66.49;101149.91;4172720;28;20052;-66
2023/06/29 07:38:07;;;;;;;;;;;;;;;19.38;66.47;101157.66;4173730;28;20051;-66
2023/06/29 07:40:10;;;;;;;;;;;;;;;19.38;66.26;101144.78;4172027;28;20015;-66
2023/06/29 07:42:13;;;;;;;;;;;;;;;19.40;66.18;101147.31;4171879;28;20019;-65
2023/06/29 07:44:15;;;;;;;;;;;;;;;19.41;65.89;101141.59;4172124;28;20571;-65
2023/06/29 07:46:17;;;;;;;;;;;;;;;19.44;65.62;101143.91;4170773;28;20044;-66
2023/06/29 07:48:19;;;;;;;;;;;;;;;19.44;65.55;101148.53;4171746;28;20420;-65
2023/06/29 07:50:21;;;;;;;;;;;;;;;19.45;65.07;101147.47;4171729;28;20016;-66
2023/06/29 07:52:24;;;;;;;;;;;;;;;19.44;64.97;101140.34;4171651;28;20027;-65
2023/06/29 07:54:27;;;;;;;;;;;;;;;19.44;65.08;101146.63;4172592;28;20362;-65
2023/06/29 07:56:29;;;;;;;;;;;;;;;19.47;64.91;101142.63;4169534;28;20040;-65
2023/06/29 07:58:32;;;;;;;;;;;;;;;19.49;64.78;101145.13;4172420;28;20016;-65
2023/06/29 08:00:34;;;;;;;;;;;;;;;19.51;64.71;101145.72;4171996;28;20027;-66
2023/06/29 08:02:36;;;;;;;;;;;;;;;19.54;64.78;101143.38;4172421;28;20033;-65
2023/06/29 08:04:38;;;;;;;;;;;;;;;19.56;64.55;101145.88;4171700;28;20454;-65
2023/06/29 08:06:43;;;;;;;;;;;;;;;19.58;64.46;101143.78;4170068;28;19929;-65
2023/06/29 08:08:45;;;;;;;;;;;;;;;19.59;64.14;101138.06;4172693;28;20028;-64
2023/06/29 08:10:47;;;;;;;;;;;;;;;19.60;63.85;101144.38;4171373;28;20385;-63
2023/06/29 08:12:49;;;;;;;;;;;;;;;19.63;64.54;101141.19;4170237;28;20020;-65
2023/06/29 08:14:53;;;;;;;;;;;;;;;19.67;64.45;101144.28;4172211;28;20000;-65
2023/06/29 08:16:55;;;;;;;;;;;;;;;19.72;64.26;101139.00;4171929;28;20367;-65
2023/06/29 08:18:57;;;;;;;;;;;;;;;19.74;63.63;101145.06;4172478;28;20776;-64
2023/06/29 08:20:59;;;;;;;;;;;;;;;19.74;64.00;101134.94;4172618;28;20019;-65
2023/06/29 08:23:01;;;;;;;;;;;;;;;19.77;64.67;101139.16;4172608;28;20011;-66
2023/06/29 08:25:04;;;;;;;;;;;;;;;19.80;65.25;101139.53;4172294;28;20020;-65
2023/06/29 08:27:07;;;;;;;;;;;;;;;19.84;65.98;101141.81;4169326;28;20023;-64
2023/06/29 08:29:09;;;;;;;;;;;;;;;19.84;65.43;101144.56;4171462;28;21370;-64
2023/06/29 08:31:14;;;;;;;;;;;;;;;19.86;65.19;101131.44;4170248;28;20465;-65
2023/06/29 08:33:16;;;;;;;;;;;;;;;19.86;65.33;101134.19;4170518;28;20015;-63
2023/06/29 08:35:18;;;;;;;;;;;;;;;19.85;65.13;101136.09;4171802;28;20020;-64
2023/06/29 08:37:20;;;;;;;;;;;;;;;19.84;64.76;101128.94;4171821;28;20450;-64
2023/06/29 08:39:22;;;;;;;;;;;;;;;19.88;64.65;101132.91;4171825;28;20008;-62
2023/06/29 08:41:24;;;;;;;;;;;;;;;19.92;63.61;101131.41;4172904;28;20011;-65
2023/06/29 08:43:26;;;;;;;;;;;;;;;19.93;63.18;101126.75;4168413;28;20036;-65
2023/06/29 08:45:28;;;;;;;;;;;;;;;19.93;63.35;101132.22;4169624;28;20055;-63
2023/06/29 08:47:31;;;;;;;;;;;;;;;19.95;63.44;101138.31;4163482;28;19955;-65
2023/06/29 08:49:33;;;;;;;;;;;;;;;19.96;63.34;101134.50;4169031;28;20003;-65
2023/06/29 08:51:36;;;;;;;;;;;;;;;19.96;63.20;101134.50;4170873;28;20023;-65
2023/06/29 08:53:39;;;;;;;;;;;;;;;19.96;62.91;101129.84;4171818;28;20008;-65
2023/06/29 08:55:42;;;;;;;;;;;;;;;19.98;63.11;101133.22;4171028;28;20019;-65
2023/06/29 08:57:44;;;;;;;;;;;;;;;19.98;62.72;101132.34;4170982;28;20011;-65
2023/06/29 08:59:47;;;;;;;;;;;;;;;19.99;62.67;101140.34;4169978;28;20371;-64
2023/06/29 09:01:49;;;;;;;;;;;;;;;20.00;62.66;101135.72;4170628;28;20353;-63
2023/06/29 09:03:53;;;;;;;;;;;;;;;20.01;62.48;101137.38;4171685;28;20402;-63
2023/06/29 09:05:55;;;;;;;;;;;;;;;20.02;62.68;101133.59;4170354;28;20036;-63
2023/06/29 09:07:57;;;;;;;;;;;;;;;20.02;62.56;101135.50;4170016;28;20024;-65
2023/06/29 09:09:59;;;;;;;;;;;;;;;20.01;62.45;101131.91;4170266;28;20347;-67
2023/06/29 09:12:01;;;;;;;;;;;;;;;20.01;62.71;101133.81;4170677;28;20102;-67
2023/06/29 09:14:05;;;;;;;;;;;;;;;20.04;62.72;101133.34;4171993;28;20051;-66
2023/06/29 09:16:10;;;;;;;;;;;;;;;20.06;62.20;101131.22;4171018;28;20024;-67
2023/06/29 09:18:12;;;;;;;;;;;;;;;20.04;62.25;101133.34;4170020;28;20007;-67
2023/06/29 09:20:16;;;;;;;;;;;;;;;20.04;62.29;101127.88;4168441;28;20027;-63
2023/06/29 09:22:18;;;;;;;;;;;;;;;20.04;62.26;101133.34;4172066;28;20356;-66
2023/06/29 09:24:21;;;;;;;;;;;;;;;20.06;62.55;101122.97;4169626;28;20016;-64
2023/06/29 09:26:24;;;;;;;;;;;;;;;20.07;62.32;101127.41;4170179;28;20011;-63
2023/06/29 09:28:26;;;;;;;;;;;;;;;20.09;62.51;101128.84;4172412;28;20031;-63
2023/06/29 09:30:28;;;;;;;;;;;;;;;20.11;62.60;101123.97;4161660;28;20011;-62
2023/06/29 09:32:30;;;;;;;;;;;;;;;20.10;62.23;101121.47;4160740;28;19933;-62
2023/06/29 09:34:32;;;;;;;;;;;;;;;20.13;62.76;101126.50;4168558;28;20020;-64
2023/06/29 09:36:39;;;;;;;;;;;;;;;20.15;62.60;101124.34;4169073;28;19960;-68
2023/06/29 09:38:41;;;;;;;;;;;;;;;20.16;63.05;101132.34;4159867;28;20473;-66
2023/06/29 09:40:49;;;;;;;;;;;;;;;20.17;62.82;101123.06;4169713;28;20019;-66
2023/06/29 09:42:51;;;;;;;;;;;;;;;20.20;62.98;101119.00;4170878;28;20012;-67
2023/06/29 09:44:54;;;;;;;;;;;;;;;20.23;63.37;101120.44;4168795;28;20019;-67
2023/06/29 09:47:04;;;;;;;;;;;;;;;20.22;62.96;101116.00;4164175;28;20050;-67
2023/06/29 09:49:05;;;;;;;;;;;;;;;20.27;63.55;101117.00;4166853;28;20378;-68
2023/06/29 09:51:08;;;;;;;;;;;;;;;20.32;63.25;101116.31;4170376;28;20016;-67
2023/06/29 09:53:13;;;;;;;;;;;;;;;20.33;62.68;101115.25;4170705;28;20032;-67
2023/06/29 09:55:15;;;;;;;;;;;;;;;20.35;62.56;101119.41;4172603;28;20019;-68
2023/06/29 09:57:17;;;;;;;;;;;;;;;20.38;62.38;101115.38;4171734;28;20422;-67
2023/06/29 09:59:19;;;;;;;;;;;;;;;20.39;62.20;101110.72;4169168;28;19960;-67
2023/06/29 10:01:21;;;;;;;;;;;;;;;20.38;62.28;101117.28;4170173;28;20028;-68
2023/06/29 10:03:23;;;;;;;;;;;;;;;20.40;62.28;101104.16;4172439;28;20019;-67
2023/06/29 10:05:29;;;;;;;;;;;;;;;20.41;62.39;101106.69;4171058;28;20011;-68
2023/06/29 10:07:32;;;;;;;;;;;;;;;20.41;62.24;101106.69;4154315;28;20024;-67
2023/06/29 10:09:36;;;;;;;;;;;;;;;20.43;61.96;101109.19;4169540;28;20473;-66
2023/06/29 10:11:38;;;;;;;;;;;;;;;20.44;62.22;101103.47;4168161;28;19929;-68
2023/06/29 10:13:42;;;;;;;;;;;;;;;20.49;62.22;101105.50;4170356;28;20024;-67
2023/06/29 10:15:44;;;;;;;;;;;;;;;20.55;61.91;101096.34;4168509;28;20096;-67
2023/06/29 10:17:47;;;;;;;;;;;;;;;20.59;61.62;101096.72;4173604;28;20020;-67
2023/06/29 10:19:49;;;;;;;;;;;;;;;20.61;61.59;101094.56;4167257;28;20019;-67
2023/06/29 10:21:56;;;;;;;;;;;;;;;20.63;61.61;101093.25;4171008;28;20015;-67
2023/06/29 10:23:58;;;;;;;;;;;;;;;20.65;61.39;101088.38;4169592;28;20015;-68
2023/06/29 10:26:01;;;;;;;;;;;;;;;20.68;61.27;101089.84;4167996;28;20020;-68
2023/06/29 10:28:04;;;;;;;;;;;;;;;20.67;61.26;101085.41;4170215;28;20015;-68
2023/06/29 10:30:06;;;;;;;;;;;;;;;20.68;61.37;101082.44;4167641;28;20032;-68